Time;durP1;ratioP1;P1;durP2;ratioP2;P2;SDS_P1;SDS_P2;PMS_P1;PMS_P2;Temp;Humidity;BMP_temperature;BMP_pressure;BME280_temperature;BME280_humidity;BME280_pressure;Samples;Min_cycle;Max_cycle;Signal;HPM_P1;HPM_P2
2023/05/07 05:04:05;;;;;;;;;1.00;1.00;;;;;19.54;86.62;101246.41;6279528;22;45155;-61
2023/05/07 05:06:31;;;;;;;;;2.00;1.00;;;;;19.55;86.30;101245.44;6251531;22;45224;-61
2023/05/07 05:08:57;;;;;;;;;2.00;1.00;;;;;19.55;86.01;101242.72;6278381;22;45314;-61
2023/05/07 05:11:22;;;;;;;;;1.00;1.00;;;;;19.51;86.37;101254.75;6278082;22;65757;-61
2023/05/07 05:13:49;;;;;;;;;1.00;1.00;;;;;19.49;86.56;101256.75;6250921;22;45328;-61
2023/05/07 05:16:14;;;;;;;;;1.00;1.00;;;;;19.45;85.55;101245.34;6278845;22;45370;-61
2023/05/07 05:18:40;;;;;;;;;1.00;1.00;;;;;19.49;86.01;101251.34;6250677;22;45261;-61
2023/05/07 05:21:05;;;;;;;;;0.00;0.00;;;;;19.67;84.65;101257.94;6279241;22;45385;-61
2023/05/07 05:23:31;;;;;;;;;0.33;0.00;;;;;19.53;86.17;101258.19;6224666;22;54777;-62
2023/05/07 05:26:00;;;;;;;;;1.67;1.00;;;;;19.55;86.63;101256.22;6224425;22;68779;-61
2023/05/07 05:28:25;;;;;;;;;2.00;2.00;;;;;19.56;85.22;101263.34;6279882;22;45188;-61
2023/05/07 05:30:51;;;;;;;;;1.67;1.67;;;;;19.56;84.96;101270.59;6280014;22;45391;-61
2023/05/07 05:33:16;;;;;;;;;3.67;2.00;;;;;19.54;85.75;101269.84;6279784;22;45345;-61
2023/05/07 05:35:42;;;;;;;;;3.00;1.00;;;;;19.58;85.36;101274.00;6279556;22;61371;-61
2023/05/07 05:38:07;;;;;;;;;3.33;1.67;;;;;19.59;85.35;101273.03;6251971;22;45274;-61
2023/05/07 05:40:33;;;;;;;;;3.67;2.00;;;;;19.56;86.53;101271.44;6280351;22;45417;-61
2023/05/07 05:42:58;;;;;;;;;2.00;2.00;;;;;19.63;85.17;101267.28;6252994;22;45268;-61
2023/05/07 05:45:24;;;;;;;;;2.00;2.00;;;;;19.64;85.62;101279.75;6280213;22;46246;-61
2023/05/07 05:47:49;;;;;;;;;2.00;1.67;;;;;19.65;85.48;101267.97;6279995;22;45270;-61
2023/05/07 05:50:15;;;;;;;;;1.00;1.00;;;;;19.66;85.36;101279.66;6252769;22;45297;-61
2023/05/07 05:52:40;;;;;;;;;1.00;1.00;;;;;19.64;85.89;101277.06;6252398;22;45216;-61
2023/05/07 05:55:06;;;;;;;;;1.00;1.00;;;;;19.66;85.15;101271.56;6252477;22;47715;-61
2023/05/07 05:57:31;;;;;;;;;1.00;1.00;;;;;19.65;85.35;101281.47;6252452;22;45296;-61
2023/05/07 05:59:57;;;;;;;;;1.00;1.00;;;;;19.65;85.02;101278.78;6252336;22;45766;-61
2023/05/07 06:02:23;;;;;;;;;2.00;2.00;;;;;19.70;85.12;101280.25;6252410;22;45453;-61
2023/05/07 06:04:48;;;;;;;;;2.00;2.00;;;;;19.73;85.57;101283.56;6252832;22;46394;-61
2023/05/07 06:07:14;;;;;;;;;1.67;1.67;;;;;19.76;85.43;101286.00;6279953;22;45146;-61
2023/05/07 06:09:39;;;;;;;;;1.00;1.00;;;;;19.77;84.65;101286.88;6251890;22;58650;-61
2023/05/07 06:12:05;;;;;;;;;1.00;1.00;;;;;19.79;84.67;101284.88;6280166;22;45252;-61
2023/05/07 06:14:30;;;;;;;;;1.33;1.33;;;;;19.87;84.06;101289.69;6280137;22;46029;-61
2023/05/07 06:16:56;;;;;;;;;2.33;2.33;;;;;19.91;84.49;101283.09;6251917;22;45224;-61
2023/05/07 06:19:23;;;;;;;;;2.67;2.67;;;;;19.94;84.12;101296.31;6252862;22;45248;-61
2023/05/07 06:21:49;;;;;;;;;3.00;2.00;;;;;19.97;83.95;101294.22;6253365;22;45236;-61
2023/05/07 06:24:14;;;;;;;;;0.00;0.00;;;;;19.99;85.23;101288.69;6226367;22;47741;-61
2023/05/07 06:26:40;;;;;;;;;3.00;1.33;;;;;20.05;84.56;101290.03;6279221;22;45369;-61
2023/05/07 06:29:06;;;;;;;;;2.00;2.00;;;;;20.11;84.54;101294.94;6279520;22;45298;-61
2023/05/07 06:31:34;;;;;;;;;1.00;1.00;;;;;20.17;84.19;101291.72;6252320;22;45490;-61
2023/05/07 06:33:59;;;;;;;;;1.67;0.67;;;;;20.24;83.44;101292.06;6279981;22;45255;-61
2023/05/07 06:36:26;;;;;;;;;1.00;1.00;;;;;20.31;83.99;101294.13;6279608;22;45221;-61
2023/05/07 06:38:51;;;;;;;;;0.67;0.67;;;;;20.39;84.10;101298.00;6252756;22;45259;-61
2023/05/07 06:41:16;;;;;;;;;2.00;2.00;;;;;20.46;83.64;101297.38;6251818;22;61254;-61
2023/05/07 06:43:42;;;;;;;;;0.00;0.00;;;;;20.55;83.54;101301.16;6251505;22;64508;-61
2023/05/07 06:46:07;;;;;;;;;0.67;0.67;;;;;20.62;81.83;101302.34;6252425;22;45215;-61
2023/05/07 06:48:32;;;;;;;;;0.00;0.00;;;;;20.63;80.94;101306.75;6225887;22;67165;-61
2023/05/07 06:50:58;;;;;;;;;0.33;0.33;;;;;20.62;80.92;101301.47;6280100;22;45232;-61
2023/05/07 06:53:24;;;;;;;;;0.00;0.00;;;;;20.63;81.62;101303.19;6278719;22;67297;-61
2023/05/07 06:55:49;;;;;;;;;0.67;0.67;;;;;20.66;81.39;101311.03;6252113;22;45208;-61
2023/05/07 06:58:14;;;;;;;;;2.00;1.00;;;;;20.67;80.87;101310.91;6278555;22;60387;-61
2023/05/07 07:00:40;;;;;;;;;0.00;0.00;;;;;20.64;80.95;101321.97;6278890;22;61651;-61
2023/05/07 07:03:06;;;;;;;;;2.00;0.67;;;;;20.59;80.37;101309.84;6252757;22;45505;-61
2023/05/07 07:05:31;;;;;;;;;0.00;0.00;;;;;20.49;80.46;101316.03;6279980;22;45262;-61
2023/05/07 07:07:57;;;;;;;;;0.00;0.00;;;;;20.47;81.21;101320.72;6251391;22;67664;-61
2023/05/07 07:10:22;;;;;;;;;2.00;0.00;;;;;20.43;79.99;101316.56;6252829;22;45188;-61
2023/05/07 07:12:49;;;;;;;;;0.00;0.00;;;;;20.40;80.91;101314.13;6225016;22;71606;-61
2023/05/07 07:15:14;;;;;;;;;0.33;0.33;;;;;20.38;80.66;101315.22;6252546;22;45209;-61
2023/05/07 07:17:39;;;;;;;;;0.00;0.00;;;;;20.39;80.51;101325.03;6252747;22;45139;-61
2023/05/07 07:20:06;;;;;;;;;0.67;0.67;;;;;20.38;80.64;101326.03;6278836;22;64908;-61
2023/05/07 07:22:31;;;;;;;;;0.00;0.00;;;;;20.35;80.21;101320.88;6251581;22;45241;-61
2023/05/07 07:24:56;;;;;;;;;0.00;0.00;;;;;20.37;80.45;101332.41;6226606;22;46479;-61
2023/05/07 07:27:22;;;;;;;;;6.00;1.00;;;;;20.38;80.32;101328.75;6279100;22;60383;-61
2023/05/07 07:29:47;;;;;;;;;0.33;0.33;;;;;20.38;80.15;101332.28;6226763;22;45495;-61
2023/05/07 07:32:12;;;;;;;;;1.00;1.00;;;;;20.40;80.25;101338.44;6250839;22;73799;-61
2023/05/07 07:34:38;;;;;;;;;0.00;0.00;;;;;20.39;79.81;101341.22;6278363;22;71777;-61
2023/05/07 07:37:05;;;;;;;;;1.00;1.00;;;;;20.38;80.68;101344.94;6278950;22;64461;-61
2023/05/07 07:39:32;;;;;;;;;0.00;0.00;;;;;20.39;80.08;101347.50;6279177;22;45217;-62
2023/05/07 07:41:57;;;;;;;;;2.00;1.00;;;;;20.50;80.81;101343.91;6279563;22;46257;-61
2023/05/07 07:44:22;;;;;;;;;2.33;1.00;;;;;20.64;79.62;101340.91;6279609;22;45077;-61
2023/05/07 07:46:48;;;;;;;;;0.00;0.00;;;;;20.67;80.07;101350.59;6279337;22;52280;-61
2023/05/07 07:49:13;;;;;;;;;1.00;1.00;;;;;20.67;79.68;101347.91;6280120;22;45194;-61
2023/05/07 07:51:39;;;;;;;;;1.00;1.00;;;;;20.70;79.87;101341.41;6225483;22;48201;-61
2023/05/07 07:54:04;;;;;;;;;1.00;1.00;;;;;20.76;80.54;101349.00;6226078;22;45228;-61
2023/05/07 07:56:29;;;;;;;;;0.67;0.00;;;;;20.82;79.90;101354.75;6253089;22;45179;-61
2023/05/07 07:58:55;;;;;;;;;1.00;1.00;;;;;20.91;79.83;101352.22;6278835;22;58178;-61
2023/05/07 08:01:20;;;;;;;;;1.67;1.67;;;;;20.99;79.86;101349.75;6226077;22;48068;-61
2023/05/07 08:03:46;;;;;;;;;0.00;0.00;;;;;21.03;79.69;101355.72;6279489;22;45086;-61
2023/05/07 08:06:11;;;;;;;;;1.00;1.00;;;;;21.08;79.43;101354.38;6225779;22;45272;-61
2023/05/07 08:08:36;;;;;;;;;2.00;0.33;;;;;21.11;80.20;101359.50;6278166;22;63193;-62
2023/05/07 08:11:02;;;;;;;;;1.00;1.00;;;;;21.13;78.70;101356.66;6278292;22;69484;-61
2023/05/07 08:13:27;;;;;;;;;1.00;1.00;;;;;21.19;78.54;101353.44;6278618;22;54805;-61
2023/05/07 08:15:52;;;;;;;;;1.00;1.00;;;;;21.26;78.81;101345.63;6251988;22;45426;-61
2023/05/07 08:18:18;;;;;;;;;0.33;0.33;;;;;21.36;77.84;101353.81;6251014;22;65919;-61
2023/05/07 08:20:43;;;;;;;;;4.00;1.00;;;;;21.49;78.00;101367.97;6251053;22;64794;-61
2023/05/07 08:23:08;;;;;;;;;1.00;1.00;;;;;21.71;77.58;101374.25;6250325;22;57542;-61
2023/05/07 08:25:34;;;;;;;;;1.67;1.00;;;;;21.86;78.02;101372.03;6250983;22;57998;-61
2023/05/07 08:28:00;;;;;;;;;1.00;1.00;;;;;22.09;76.84;101364.53;6278365;22;45295;-61
2023/05/07 08:30:25;;;;;;;;;1.00;1.00;;;;;22.42;76.36;101368.78;6279221;22;45279;-61
2023/05/07 08:32:51;;;;;;;;;1.33;1.33;;;;;22.68;74.66;101375.50;6251887;22;45300;-61
2023/05/07 08:35:16;;;;;;;;;0.00;0.00;;;;;22.75;73.79;101373.91;6278400;22;61871;-61
2023/05/07 08:37:42;;;;;;;;;1.00;1.00;;;;;22.73;73.63;101376.78;6278693;22;45295;-61
2023/05/07 08:40:07;;;;;;;;;1.00;1.00;;;;;22.68;74.15;101383.63;6251004;22;46023;-61
2023/05/07 08:42:36;;;;;;;;;1.00;1.00;;;;;22.58;73.78;101379.06;6278656;22;45212;-61
2023/05/07 08:45:05;;;;;;;;;0.67;0.67;;;;;22.45;74.35;101386.63;6278920;22;45219;-61
2023/05/07 08:47:36;;;;;;;;;1.00;1.00;;;;;22.30;73.72;101388.81;6252559;22;45224;-61
2023/05/07 08:50:02;;;;;;;;;1.00;1.00;;;;;22.18;73.46;101395.38;6251704;22;45516;-61
2023/05/07 08:52:27;;;;;;;;;2.00;2.00;;;;;22.05;74.00;101385.63;6278214;22;45310;-61
2023/05/07 08:54:52;;;;;;;;;2.67;2.67;;;;;22.00;74.86;101385.19;6278003;22;67933;-61
2023/05/07 08:57:19;;;;;;;;;1.33;1.33;;;;;22.02;75.24;101393.16;6251558;22;45303;-61
2023/05/07 08:59:45;;;;;;;;;5.33;1.00;;;;;22.02;75.51;101395.88;6278681;22;45296;-60
2023/05/07 09:02:11;;;;;;;;;2.00;2.00;;;;;22.10;75.86;101399.59;6278568;22;56857;-61
2023/05/07 09:04:36;;;;;;;;;1.67;1.67;;;;;22.14;74.98;101401.03;6252650;22;45333;-61
2023/05/07 09:07:05;;;;;;;;;2.00;2.00;;;;;22.19;75.19;101402.47;6252237;22;50131;-61
2023/05/07 09:09:32;;;;;;;;;2.33;2.33;;;;;22.30;74.70;101394.25;6279152;22;46501;-61
2023/05/07 09:12:01;;;;;;;;;3.33;2.33;;;;;22.42;73.94;101392.31;6252480;22;45345;-61
2023/05/07 09:14:27;;;;;;;;;4.00;2.67;;;;;22.46;74.28;101388.31;6227986;22;45280;-61
2023/05/07 09:16:53;;;;;;;;;2.25;1.00;;;;;22.54;73.28;101391.19;6280264;22;45439;-61
2023/05/07 09:19:23;;;;;;;;;2.00;2.00;;;;;22.54;73.25;101393.91;6251913;22;47368;-61
2023/05/07 09:21:48;;;;;;;;;2.00;2.00;;;;;22.57;73.45;101395.47;6279410;22;45308;-61
2023/05/07 09:24:15;;;;;;;;;2.00;2.00;;;;;22.60;73.35;101395.19;6251412;22;60295;-61
2023/05/07 09:26:41;;;;;;;;;2.00;2.00;;;;;22.66;73.54;101393.75;6252181;22;45431;-61
2023/05/07 09:29:07;;;;;;;;;4.00;3.00;;;;;22.74;73.83;101392.06;6279721;22;46384;-61
2023/05/07 09:31:37;;;;;;;;;3.67;3.00;;;;;22.80;72.54;101396.03;6251735;22;45253;-61
2023/05/07 09:34:04;;;;;;;;;3.00;3.00;;;;;22.79;72.34;101397.91;6252273;22;45257;-61
2023/05/07 09:36:31;;;;;;;;;3.00;2.00;;;;;22.79;72.27;101388.94;6280125;22;45174;-61
2023/05/07 09:38:59;;;;;;;;;2.00;2.00;;;;;22.77;72.15;101382.78;6226275;22;47915;-61
2023/05/07 09:41:25;;;;;;;;;3.00;3.00;;;;;22.77;72.42;101399.88;6226170;22;45217;-61
2023/05/07 09:43:54;;;;;;;;;4.67;3.00;;;;;22.68;71.70;101398.03;6252329;22;45200;-61
2023/05/07 09:46:27;;;;;;;;;3.00;2.33;;;;;22.53;71.71;101403.03;6279437;22;45387;-61
2023/05/07 09:48:59;;;;;;;;;2.00;2.00;;;;;22.40;72.07;101408.69;6253417;22;45350;-61
2023/05/07 09:51:33;;;;;;;;;1.00;1.00;;;;;22.26;72.04;101399.06;6226701;22;45259;-61
2023/05/07 09:54:02;;;;;;;;;2.00;2.00;;;;;22.18;73.22;101408.91;6279334;22;45220;-61
2023/05/07 09:56:29;;;;;;;;;3.00;3.00;;;;;22.19;72.90;101403.34;6279718;22;45276;-60
2023/05/07 09:58:56;;;;;;;;;2.00;2.00;;;;;22.22;73.10;101404.94;6279353;22;46310;-60
2023/05/07 10:01:22;;;;;;;;;3.33;3.00;;;;;22.37;73.49;101405.41;6279591;22;45242;-60
2023/05/07 10:03:50;;;;;;;;;4.00;3.00;;;;;22.62;73.35;101407.59;6278883;22;66028;-60
2023/05/07 10:06:15;;;;;;;;;2.33;2.33;;;;;22.87;73.09;101394.47;6252476;22;45448;-61
2023/05/07 10:08:42;;;;;;;;;2.67;2.67;;;;;23.08;72.06;101407.03;6226041;22;48313;-61
2023/05/07 10:11:09;;;;;;;;;4.50;3.00;;;;;23.23;72.01;101405.63;6279665;22;45303;-61
2023/05/07 10:13:35;;;;;;;;;2.33;2.33;;;;;23.39;71.12;101418.59;6251712;22;45275;-61
2023/05/07 10:16:03;;;;;;;;;3.00;3.00;;;;;23.54;70.95;101408.09;6252398;22;45512;-61
2023/05/07 10:18:32;;;;;;;;;2.00;2.00;;;;;23.60;70.14;101418.38;6251776;22;45359;-61
2023/05/07 10:21:03;;;;;;;;;2.00;2.00;;;;;23.70;69.76;101414.78;6279060;22;45260;-61
2023/05/07 10:23:30;;;;;;;;;3.00;3.00;;;;;23.68;69.68;101412.22;6279269;22;45160;-61
2023/05/07 10:25:56;;;;;;;;;3.67;3.67;;;;;23.71;68.99;101421.94;6278634;22;65209;-61
2023/05/07 10:28:24;;;;;;;;;3.00;3.00;;;;;23.76;68.87;101414.19;6251288;22;59962;-61
2023/05/07 10:31:01;;;;;;;;;3.00;3.00;;;;;23.81;68.85;101411.03;6251627;22;45269;-61
2023/05/07 10:33:29;;;;;;;;;3.00;3.00;;;;;23.81;68.74;101420.03;6226444;22;45312;-61
2023/05/07 10:35:59;;;;;;;;;5.00;4.33;;;;;23.79;69.10;101417.47;6252291;22;45226;-61
2023/05/07 10:38:25;;;;;;;;;4.00;4.00;;;;;23.83;68.75;101414.44;6251372;22;48213;-61
2023/05/07 10:40:50;;;;;;;;;2.00;2.00;;;;;23.81;69.23;101420.03;6251729;22;45184;-61
2023/05/07 10:43:16;;;;;;;;;4.67;4.67;;;;;23.76;69.13;101420.47;6279666;22;45304;-60
2023/05/07 10:45:41;;;;;;;;;4.00;4.00;;;;;23.83;68.26;101414.44;6279839;22;45434;-61
2023/05/07 10:48:17;;;;;;;;;6.67;5.00;;;;;23.86;68.17;101430.47;6278760;22;72434;-61
2023/05/07 10:50:43;;;;;;;;;4.00;3.00;;;;;23.82;67.92;101429.91;6251523;22;45809;-61
2023/05/07 10:53:21;;;;;;;;;4.00;4.00;;;;;24.00;68.30;101426.41;6279488;22;45197;-61
2023/05/07 10:55:50;;;;;;;;;3.67;3.67;;;;;24.37;68.01;101423.66;6279407;22;45201;-61
2023/05/07 10:58:22;;;;;;;;;3.00;3.00;;;;;24.96;67.20;101419.69;6279125;22;46276;-61
2023/05/07 11:00:49;;;;;;;;;1.00;1.00;;;;;26.98;67.11;101419.34;6278239;22;45246;-61
2023/05/07 11:03:14;;;;;;;;;4.00;4.00;;;;;30.24;63.60;101416.84;6226060;22;45210;-62
2023/05/07 11:05:41;;;;;;;;;3.67;3.67;;;;;33.30;57.19;101409.81;6279622;22;45464;-62
2023/05/07 11:08:07;;;;;;;;;3.67;3.67;;;;;35.17;50.65;101417.50;6252239;22;45502;-62
2023/05/07 11:10:54;;;;;;;;;3.00;3.00;;;;;36.16;46.53;101416.69;6251579;22;45249;-62
2023/05/07 11:13:42;;;;;;;;;4.00;4.00;;;;;35.78;42.42;101421.38;6279316;22;45170;-61
2023/05/07 11:16:23;;;;;;;;;2.25;2.25;;;;;34.84;41.13;101424.16;6279526;22;45299;-61
2023/05/07 11:18:50;;;;;;;;;4.00;3.00;;;;;34.05;40.64;101421.56;6227789;22;45213;-62
2023/05/07 11:21:36;;;;;;;;;3.00;3.00;;;;;32.95;40.42;101423.78;6278803;22;45161;-61
2023/05/07 11:24:03;;;;;;;;;2.50;2.50;;;;;31.83;40.88;101423.19;6279268;22;45121;-61
2023/05/07 11:26:31;;;;;;;;;5.00;4.33;;;;;30.78;42.15;101421.06;6252221;22;45277;-61
2023/05/07 11:28:57;;;;;;;;;3.00;3.00;;;;;29.96;42.96;101425.78;6278774;22;45504;-61
2023/05/07 11:31:25;;;;;;;;;3.00;3.00;;;;;29.18;44.01;101430.66;6225964;22;45289;-61
2023/05/07 11:33:52;;;;;;;;;3.00;3.00;;;;;28.47;44.80;101428.03;6226349;22;45283;-61
2023/05/07 11:36:18;;;;;;;;;4.00;4.00;;;;;27.78;46.04;101436.84;6279506;22;45319;-61
2023/05/07 11:38:43;;;;;;;;;4.00;4.00;;;;;27.27;46.96;101428.91;6251397;22;46243;-61
2023/05/07 11:41:08;;;;;;;;;4.00;4.00;;;;;26.68;48.22;101433.44;6277970;22;71558;-61
2023/05/07 11:43:35;;;;;;;;;8.00;5.33;;;;;26.08;50.55;101443.47;6250880;22;55568;-61
2023/05/07 11:46:11;;;;;;;;;4.67;4.67;;;;;25.52;51.13;101439.38;6279657;22;45230;-61
2023/05/07 11:48:37;;;;;;;;;4.33;4.33;;;;;25.31;52.47;101443.28;6251729;22;45333;-61
2023/05/07 11:51:04;;;;;;;;;6.00;6.00;;;;;25.19;52.89;101441.84;6251621;22;45283;-61
2023/05/07 11:53:38;;;;;;;;;4.67;4.67;;;;;25.12;53.49;101448.91;6251877;22;45206;-61
2023/05/07 11:56:11;;;;;;;;;6.33;5.00;;;;;25.15;53.50;101449.44;6251802;22;45217;-61
2023/05/07 11:58:37;;;;;;;;;5.00;5.00;;;;;25.55;54.10;101442.66;6225421;22;46285;-62
2023/05/07 12:01:03;;;;;;;;;5.00;5.00;;;;;27.82;53.97;101444.53;6225619;22;45223;-63
2023/05/07 12:03:28;;;;;;;;;5.00;5.00;;;;;31.62;50.44;101433.19;6279340;22;45157;-63
2023/05/07 12:05:53;;;;;;;;;7.00;7.00;;;;;35.15;42.52;101433.44;6252153;22;45174;-63
2023/05/07 12:08:20;;;;;;;;;6.33;5.67;;;;;34.86;38.43;101433.91;6278791;22;45496;-63
2023/05/07 12:10:49;;;;;;;;;3.25;3.25;;;;;33.71;38.31;101431.81;6251699;22;45566;-63
2023/05/07 12:13:19;;;;;;;;;3.00;3.00;;;;;32.37;38.33;101438.03;6278863;22;45263;-63
2023/05/07 12:15:45;;;;;;;;;3.75;3.00;;;;;31.26;39.75;101438.81;6252369;22;45571;-62
2023/05/07 12:18:13;;;;;;;;;6.00;4.00;;;;;30.38;40.64;101439.78;6251118;22;47938;-63
2023/05/07 12:20:39;;;;;;;;;5.00;4.25;;;;;29.73;42.07;101433.22;6251584;22;49265;-62
2023/05/07 12:23:04;;;;;;;;;4.50;4.50;;;;;29.22;43.07;101440.19;6277672;22;67709;-62
2023/05/07 12:25:46;;;;;;;;;5.00;5.00;;;;;28.70;44.65;101445.38;6226009;22;45378;-61
2023/05/07 12:28:16;;;;;;;;;4.75;4.75;;;;;28.27;44.51;101446.78;6250888;22;47336;-63
2023/05/07 12:30:49;;;;;;;;;4.00;4.00;;;;;27.95;44.91;101454.91;6225455;22;45265;-63
2023/05/07 12:33:20;;;;;;;;;7.75;6.75;;;;;27.65;45.45;101456.53;6251597;22;45330;-63
2023/05/07 12:35:47;;;;;;;;;6.25;5.00;;;;;27.35;46.17;101457.06;6252404;22;45428;-63
2023/05/07 12:38:15;;;;;;;;;5.00;5.00;;;;;27.02;46.86;101457.03;6251929;22;45383;-63
2023/05/07 12:40:43;;;;;;;;;5.33;5.33;;;;;26.73;47.42;101455.63;6279806;22;45331;-63
2023/05/07 12:43:22;;;;;;;;;4.00;4.00;;;;;26.50;48.24;101460.81;6280258;22;45189;-62
2023/05/07 12:45:50;;;;;;;;;7.67;6.00;;;;;26.24;48.86;101471.81;6280229;22;45193;-62
2023/05/07 12:48:15;;;;;;;;;6.00;6.00;;;;;25.93;49.02;101477.78;6279979;22;45613;-62
2023/05/07 12:50:40;;;;;;;;;7.00;7.00;;;;;25.70;49.74;101475.59;6280001;22;49540;-62
2023/05/07 12:53:07;;;;;;;;;6.00;6.00;;;;;25.24;50.03;101475.72;6252916;22;45236;-63
2023/05/07 12:55:40;;;;;;;;;4.67;4.67;;;;;24.86;50.43;101474.16;6280455;22;45196;-62
2023/05/07 12:58:06;;;;;;;;;8.33;6.33;;;;;24.70;51.82;101474.84;6279694;22;45529;-62
2023/05/07 13:00:38;;;;;;;;;5.00;4.67;;;;;24.41;52.10;101479.41;6251906;22;45279;-62
2023/05/07 13:03:04;;;;;;;;;8.33;7.00;;;;;24.27;52.91;101478.09;6253124;22;45266;-62
2023/05/07 13:05:30;;;;;;;;;7.00;6.00;;;;;24.14;54.02;101476.69;6280212;22;45427;-62
2023/05/07 13:07:56;;;;;;;;;7.00;7.00;;;;;24.03;54.14;101484.03;6251931;22;45958;-62
2023/05/07 13:10:25;;;;;;;;;11.00;9.33;;;;;23.90;55.10;101491.66;6252006;22;45272;-62
2023/05/07 13:12:51;;;;;;;;;5.00;5.00;;;;;23.70;55.76;101490.81;6252410;22;45178;-62
2023/05/07 13:15:17;;;;;;;;;4.67;4.67;;;;;23.43;56.95;101496.00;6252176;22;45475;-62
2023/05/07 13:17:42;;;;;;;;;4.00;4.00;;;;;23.28;56.49;101500.16;6280171;22;45191;-62
2023/05/07 13:20:09;;;;;;;;;2.00;1.67;;;;;23.13;57.87;101500.53;6250859;22;58720;-62
2023/05/07 13:22:35;;;;;;;;;5.00;4.00;;;;;23.00;58.22;101509.94;6279960;22;45324;-62
2023/05/07 13:25:00;;;;;;;;;4.00;2.00;;;;;22.85;58.56;101509.50;6252840;22;45376;-62
2023/05/07 13:27:25;;;;;;;;;3.00;1.33;;;;;22.77;59.21;101504.78;6279225;22;62332;-62
2023/05/07 13:29:51;;;;;;;;;5.00;5.00;;;;;22.59;59.88;101505.47;6252328;22;45248;-62
2023/05/07 13:32:16;;;;;;;;;17.33;15.00;;;;;22.53;60.31;101508.72;6280387;22;45229;-62
2023/05/07 13:34:42;;;;;;;;;8.67;5.33;;;;;22.50;61.34;101510.84;6251679;22;66665;-62
2023/05/07 13:37:07;;;;;;;;;4.00;4.00;;;;;22.46;61.13;101508.44;6252037;22;61640;-62
2023/05/07 13:39:33;;;;;;;;;7.67;6.00;;;;;22.43;62.01;101508.69;6250859;22;45456;-62
2023/05/07 13:41:58;;;;;;;;;24.67;19.33;;;;;22.39;62.39;101509.97;6252335;22;45286;-62
2023/05/07 13:44:24;;;;;;;;;12.33;12.33;;;;;22.40;62.19;101506.25;6226692;22;45388;-62
2023/05/07 13:46:49;;;;;;;;;10.67;10.67;;;;;22.46;62.91;101511.13;6251740;22;45268;-62
2023/05/07 13:49:15;;;;;;;;;5.00;5.00;;;;;22.58;62.95;101522.72;6279821;22;45173;-62
2023/05/07 13:51:40;;;;;;;;;3.67;3.67;;;;;22.70;62.73;101518.06;6279768;22;45167;-61
2023/05/07 13:54:06;;;;;;;;;5.00;5.00;;;;;22.74;62.42;101516.78;6252539;22;45523;-62
2023/05/07 13:56:32;;;;;;;;;6.67;6.00;;;;;22.83;62.82;101512.38;6279969;22;45296;-62
2023/05/07 13:58:58;;;;;;;;;5.00;5.00;;;;;22.90;62.56;101515.38;6279707;22;45283;-62
2023/05/07 14:01:23;;;;;;;;;7.00;6.00;;;;;23.00;62.69;101516.25;6279878;22;45279;-61
2023/05/07 14:03:48;;;;;;;;;7.00;5.00;;;;;23.14;63.35;101506.88;6279913;22;45208;-62
2023/05/07 14:06:14;;;;;;;;;6.00;6.00;;;;;23.39;62.82;101499.16;6250356;22;61980;-61
2023/05/07 14:08:39;;;;;;;;;8.33;6.00;;;;;23.68;63.04;101503.69;6279351;22;45261;-60
2023/05/07 14:11:05;;;;;;;;;10.00;8.00;;;;;24.06;62.91;101496.47;6279851;22;45567;-60
2023/05/07 14:13:30;;;;;;;;;9.00;9.00;;;;;24.53;62.75;101500.97;6279460;22;50065;-61
2023/05/07 14:15:56;;;;;;;;;8.00;7.67;;;;;25.01;61.49;101497.09;6279647;22;45319;-60
2023/05/07 14:18:21;;;;;;;;;9.00;7.00;;;;;25.31;60.73;101502.31;6279363;22;45595;-61
2023/05/07 14:20:48;;;;;;;;;9.00;9.00;;;;;25.53;59.74;101509.19;6280289;22;45232;-61
2023/05/07 14:23:14;;;;;;;;;6.00;5.33;;;;;25.82;58.69;101511.59;6279381;22;45367;-61
2023/05/07 14:25:39;;;;;;;;;7.00;7.00;;;;;26.04;57.40;101504.78;6279661;22;45362;-61
2023/05/07 14:28:05;;;;;;;;;10.67;9.33;;;;;26.24;58.23;101507.25;6251710;22;45445;-61
2023/05/07 14:30:30;;;;;;;;;10.00;9.00;;;;;26.37;57.21;101504.94;6280230;22;45582;-61
2023/05/07 14:32:55;;;;;;;;;8.00;7.67;;;;;26.51;56.34;101508.91;6279958;22;45118;-61
2023/05/07 14:35:21;;;;;;;;;8.67;7.67;;;;;26.60;55.53;101509.78;6251333;22;46883;-61
2023/05/07 14:37:46;;;;;;;;;8.33;8.33;;;;;26.54;55.76;101513.16;6279144;22;45171;-61
2023/05/07 14:40:12;;;;;;;;;9.33;8.00;;;;;26.32;55.45;101517.34;6279014;22;63365;-61
2023/05/07 14:42:37;;;;;;;;;8.67;8.00;;;;;25.97;55.96;101516.44;6251829;22;45581;-61
2023/05/07 14:45:03;;;;;;;;;9.67;8.33;;;;;25.59;57.60;101523.00;6251066;22;74452;-61
2023/05/07 14:47:29;;;;;;;;;5.00;5.00;;;;;25.08;61.15;101530.88;6226494;22;45387;-61
2023/05/07 14:49:54;;;;;;;;;6.00;6.00;;;;;24.38;62.39;101536.81;6251260;22;64081;-61
2023/05/07 14:52:19;;;;;;;;;4.00;4.00;;;;;23.61;63.64;101534.13;6252337;22;45196;-61
2023/05/07 14:54:45;;;;;;;;;6.00;4.67;;;;;22.96;69.69;101540.06;6251563;22;47504;-61
2023/05/07 14:57:13;;;;;;;;;6.00;4.67;;;;;22.53;66.90;101543.09;6279389;22;45265;-61
2023/05/07 14:59:38;;;;;;;;;3.00;3.00;;;;;22.06;87.23;101540.84;6252765;22;45217;-60
2023/05/07 15:02:05;;;;;;;;;3.33;3.33;;;;;21.72;74.73;101541.06;6278219;22;65463;-61
2023/05/07 15:04:30;;;;;;;;;3.00;3.00;;;;;21.52;71.64;101551.72;6279216;22;47321;-61
2023/05/07 15:06:56;;;;;;;;;5.00;5.00;;;;;21.45;71.96;101561.38;6279716;22;45226;-61
2023/05/07 15:09:21;;;;;;;;;3.00;2.00;;;;;21.40;71.46;101560.88;6251577;22;45316;-60
2023/05/07 15:11:47;;;;;;;;;7.00;3.67;;;;;21.31;71.70;101567.94;6251296;22;65480;-61
2023/05/07 15:14:12;;;;;;;;;5.00;3.00;;;;;21.22;70.23;101566.84;6279380;22;45156;-60
2023/05/07 15:16:37;;;;;;;;;4.00;3.00;;;;;21.22;70.18;101566.00;6278522;22;70875;-61
2023/05/07 15:19:03;;;;;;;;;4.00;2.00;;;;;21.18;69.30;101576.19;6279720;22;45234;-61
2023/05/07 15:21:30;;;;;;;;;3.00;3.00;;;;;21.20;69.84;101581.47;6278828;22;58453;-61
2023/05/07 15:23:55;;;;;;;;;4.00;4.00;;;;;21.23;70.14;101571.25;6252018;22;46387;-61
2023/05/07 15:26:21;;;;;;;;;2.33;2.33;;;;;21.32;70.19;101575.91;6226205;22;45258;-60
2023/05/07 15:28:46;;;;;;;;;4.33;4.33;;;;;21.42;69.15;101575.13;6279725;22;45293;-60
2023/05/07 15:31:12;;;;;;;;;3.00;3.00;;;;;21.53;69.54;101574.25;6279186;22;53813;-61
2023/05/07 15:33:37;;;;;;;;;4.00;4.00;;;;;21.59;68.44;101577.31;6279571;22;46543;-60
2023/05/07 15:36:04;;;;;;;;;3.33;3.33;;;;;21.63;68.35;101595.00;6279572;22;45260;-61
2023/05/07 15:38:30;;;;;;;;;2.33;2.33;;;;;21.72;68.24;101584.38;6278827;22;45188;-61
2023/05/07 15:40:55;;;;;;;;;2.33;2.00;;;;;21.71;68.14;101577.28;6279475;22;45143;-61
2023/05/07 15:43:21;;;;;;;;;3.00;3.00;;;;;21.73;67.95;101577.97;6279062;22;45217;-60
2023/05/07 15:45:46;;;;;;;;;3.33;3.33;;;;;21.83;67.44;101581.63;6251838;22;45467;-61
2023/05/07 15:48:12;;;;;;;;;2.00;2.00;;;;;22.01;68.46;101583.75;6251360;22;61625;-61
2023/05/07 15:50:37;;;;;;;;;3.00;3.00;;;;;22.19;67.29;101582.16;6279814;22;45137;-60
2023/05/07 15:53:03;;;;;;;;;2.00;1.00;;;;;22.41;67.32;101585.69;6250533;22;67002;-61
2023/05/07 15:55:30;;;;;;;;;2.00;2.00;;;;;22.68;66.64;101586.97;6252174;22;45282;-60
2023/05/07 15:57:55;;;;;;;;;3.00;3.00;;;;;22.91;66.01;101584.91;6225911;22;45421;-61
2023/05/07 16:00:21;;;;;;;;;4.00;2.00;;;;;23.09;65.24;101591.34;6279422;22;45260;-60
2023/05/07 16:02:46;;;;;;;;;4.33;3.00;;;;;23.29;64.62;101586.00;6251385;22;46002;-61
2023/05/07 16:05:12;;;;;;;;;4.00;3.00;;;;;23.40;64.00;101576.84;6278799;22;55930;-60
2023/05/07 16:07:38;;;;;;;;;1.00;1.00;;;;;23.49;63.58;101569.72;6278821;22;45271;-61
2023/05/07 16:10:04;;;;;;;;;2.00;2.00;;;;;23.61;64.15;101576.72;6279450;22;45323;-61
2023/05/07 16:12:30;;;;;;;;;2.00;2.00;;;;;23.72;63.03;101568.41;6278408;22;45239;-61
2023/05/07 16:14:55;;;;;;;;;3.00;2.00;;;;;23.75;62.91;101576.28;6279063;22;45180;-61
2023/05/07 16:17:20;;;;;;;;;3.00;3.00;;;;;23.77;62.24;101576.13;6279329;22;45474;-61
2023/05/07 16:19:46;;;;;;;;;3.67;3.67;;;;;23.77;61.68;101582.41;6278581;22;59292;-61
2023/05/07 16:22:11;;;;;;;;;3.33;3.00;;;;;23.71;62.11;101571.28;6250810;22;46895;-61
2023/05/07 16:24:37;;;;;;;;;2.00;1.75;;;;;23.72;61.94;101573.84;6252014;22;45203;-61